createdAt,value
2022-10-20T00:00:18.871Z,100294.13
2022-10-20T00:00:50.447Z,100281.31
2022-10-20T00:01:22.907Z,100291.16
2022-10-20T00:01:54.461Z,100283.84
2022-10-20T00:02:26.060Z,100285.81
2022-10-20T00:02:57.742Z,100290.16
2022-10-20T00:03:29.373Z,100283.84
2022-10-20T00:04:00.995Z,100282.13
2022-10-20T00:04:32.671Z,100283.13
2022-10-20T00:05:04.293Z,100288.47
2022-10-20T00:05:35.871Z,100278.91
2022-10-20T00:06:08.282Z,100275.94
2022-10-20T00:06:39.895Z,100275.94
2022-10-20T00:07:11.454Z,100280.59
2022-10-20T00:07:42.927Z,100278.91
2022-10-20T00:08:14.525Z,100267.53
2022-10-20T00:08:46.127Z,100270.06
2022-10-20T00:09:17.714Z,100266.41
2022-10-20T00:09:49.280Z,100265.00
2022-10-20T00:10:20.831Z,100268.34
2022-10-20T00:11:30.242Z,100263.75
2022-10-20T00:12:01.857Z,100264.72
2022-10-20T00:12:33.773Z,100263.75
2022-10-20T00:13:05.893Z,100259.22
2022-10-20T00:13:37.581Z,100266.41
2022-10-20T00:14:09.732Z,100256.84
2022-10-20T00:14:41.298Z,100258.69
2022-10-20T00:15:12.949Z,100261.91
2022-10-20T00:15:53.785Z,100268.06
2022-10-20T00:16:25.635Z,100268.22
2022-10-20T00:16:57.161Z,100263.75
2022-10-20T00:17:28.681Z,100265.25
2022-10-20T00:18:00.254Z,100268.94
2022-10-20T00:18:31.815Z,100256.69
2022-10-20T00:19:03.379Z,100262.72
2022-10-20T00:19:34.983Z,100265.41
2022-10-20T00:20:06.912Z,100266.09
2022-10-20T00:20:39.630Z,100261.06
2022-10-20T00:21:13.066Z,100262.72
2022-10-20T00:21:44.654Z,100261.06
2022-10-20T00:22:16.197Z,100263.59
2022-10-20T00:22:47.816Z,100260.06
2022-10-20T00:23:19.514Z,100258.53
2022-10-20T00:23:51.059Z,100252.03
2022-10-20T00:24:22.648Z,100260.94
2022-10-20T00:24:54.236Z,100253.19
2022-10-20T00:25:25.798Z,100258.41
2022-10-20T00:26:00.774Z,100264.03
2022-10-20T00:26:32.479Z,100253.34
2022-10-20T00:27:04.053Z,100251.78
2022-10-20T00:27:35.579Z,100248.97
2022-10-20T00:28:07.129Z,100246.28
2022-10-20T00:28:38.820Z,100248.97
2022-10-20T00:29:10.425Z,100250.66
2022-10-20T00:29:42.049Z,100248.81
2022-10-20T00:30:13.576Z,100246.28
2022-10-20T00:30:45.183Z,100246.97
2022-10-20T00:31:16.849Z,100248.00
2022-10-20T00:31:48.422Z,100245.31
2022-10-20T00:32:20.081Z,100244.44
2022-10-20T00:32:51.579Z,100243.75
2022-10-20T00:33:23.468Z,100248.00
2022-10-20T00:33:55.000Z,100248.00
2022-10-20T00:34:26.528Z,100241.91
2022-10-20T00:34:58.114Z,100243.63
2022-10-20T00:35:30.083Z,100241.91
2022-10-20T00:36:02.081Z,100246.56
2022-10-20T00:36:33.618Z,100246.56
2022-10-20T00:37:05.149Z,100250.94
2022-10-20T00:37:36.816Z,100242.78
2022-10-20T00:38:08.346Z,100247.25
2022-10-20T00:38:39.980Z,100237.59
2022-10-20T00:39:11.709Z,100242.78
2022-10-20T00:39:43.326Z,100243.63
2022-10-20T00:40:14.907Z,100232.94
2022-10-20T00:40:46.457Z,100245.59
2022-10-20T00:41:18.550Z,100236.56
2022-10-20T00:41:50.093Z,100241.09
2022-10-20T00:42:21.664Z,100241.78
2022-10-20T00:42:53.208Z,100240.41
2022-10-20T00:43:30.094Z,100239.56
2022-10-20T00:44:02.480Z,100249.53
2022-10-20T00:44:52.798Z,100246.56
2022-10-20T00:45:24.306Z,100239.38
2022-10-20T00:45:56.011Z,100242.06
2022-10-20T00:46:34.161Z,100241.91
2022-10-20T00:47:05.676Z,100242.06
2022-10-20T00:47:59.754Z,100232.38
2022-10-20T00:48:31.327Z,100238.97
2022-10-20T00:49:11.466Z,100235.19
2022-10-20T00:49:43.080Z,100234.34
2022-10-20T00:50:24.643Z,100234.91
2022-10-20T00:50:56.188Z,100234.03
2022-10-20T00:51:28.113Z,100237.72
2022-10-20T00:51:59.632Z,100236.88
2022-10-20T00:52:31.218Z,100229.00
2022-10-20T00:53:02.834Z,100234.34
2022-10-20T00:53:34.407Z,100235.19
2022-10-20T00:54:07.680Z,100230.97
2022-10-20T00:54:39.235Z,100224.50
2022-10-20T00:55:10.757Z,100227.19
2022-10-20T00:55:42.843Z,100220.84
2022-10-20T00:56:14.368Z,100218.31
2022-10-20T00:56:46.151Z,100224.66
2022-10-20T00:57:17.689Z,100227.31
2022-10-20T00:57:49.595Z,100223.09
2022-10-20T00:58:21.260Z,100224.78
2022-10-20T00:58:52.790Z,100226.34
2022-10-20T00:59:25.843Z,100225.75
2022-10-20T00:59:57.329Z,100222.81
2022-10-20T01:00:28.941Z,100221.97
2022-10-20T01:01:00.477Z,100219.31
2022-10-20T01:01:32.294Z,100216.63
2022-10-20T01:02:03.984Z,100220.13
2022-10-20T01:02:35.743Z,100205.09
2022-10-20T01:03:07.753Z,100203.41
2022-10-20T01:03:49.262Z,100196.50
2022-10-20T01:04:20.784Z,100206.91
2022-10-20T01:04:52.292Z,100190.88
2022-10-20T01:05:23.836Z,100201.44
2022-10-20T01:05:55.375Z,100190.59
2022-10-20T01:06:27.135Z,100196.94
2022-10-20T01:06:58.814Z,100194.41
2022-10-20T01:07:30.401Z,100190.75
2022-10-20T01:08:01.958Z,100191.75
2022-10-20T01:08:33.550Z,100188.22
2022-10-20T01:09:05.214Z,100186.69
2022-10-20T01:09:36.838Z,100184.56
2022-10-20T01:10:08.664Z,100194.69
2022-10-20T01:10:41.295Z,100180.47
2022-10-20T01:11:15.492Z,100181.19
2022-10-20T01:12:05.437Z,100185.69
2022-10-20T01:12:46.932Z,100177.53
2022-10-20T01:13:25.543Z,100186.41
2022-10-20T01:14:00.616Z,100188.22
2022-10-20T01:14:32.097Z,100185.41
2022-10-20T01:15:03.598Z,100175.00
2022-10-20T01:15:38.560Z,100172.19
2022-10-20T01:16:13.677Z,100175.56
2022-10-20T01:16:45.260Z,100180.19
2022-10-20T01:17:16.747Z,100179.34
2022-10-20T01:17:54.543Z,100174.69
2022-10-20T01:18:35.142Z,100169.78
2022-10-20T01:19:18.827Z,100175.00
2022-10-20T01:20:02.155Z,100164.44
2022-10-20T01:20:38.561Z,100164.31
2022-10-20T01:21:32.659Z,100166.00
2022-10-20T01:22:24.502Z,100158.81
2022-10-20T01:22:58.635Z,100154.47
2022-10-20T01:23:43.451Z,100157.69
2022-10-20T01:24:20.867Z,100149.41
2022-10-20T01:24:58.640Z,100144.91
2022-10-20T01:25:48.538Z,100149.28
2022-10-20T01:26:20.027Z,100151.22
2022-10-20T01:26:57.199Z,100144.91
2022-10-20T01:27:35.454Z,100153.06
2022-10-20T01:28:07.879Z,100148.28
2022-10-20T01:29:17.844Z,100150.09
2022-10-20T01:29:52.073Z,100152.78
2022-10-20T01:30:23.667Z,100149.13
2022-10-20T01:30:59.122Z,100151.66
2022-10-20T01:31:39.254Z,100154.34
2022-10-20T01:32:16.498Z,100159.56
2022-10-20T01:33:06.520Z,100155.59
2022-10-20T01:33:38.007Z,100157.72
2022-10-20T01:34:15.469Z,100155.59
2022-10-20T01:34:52.072Z,100156.28
2022-10-20T01:35:30.506Z,100152.94
2022-10-20T01:36:04.266Z,100167.13
2022-10-20T01:36:58.914Z,100160.78
2022-10-20T01:37:49.796Z,100156.13
2022-10-20T01:38:36.793Z,100158.97
2022-10-20T01:39:09.441Z,100160.78
2022-10-20T01:39:43.936Z,100151.94
2022-10-20T01:40:17.167Z,100161.91
2022-10-20T01:40:50.216Z,100149.56
2022-10-20T01:41:25.617Z,100156.44
2022-10-20T01:42:00.799Z,100153.63
2022-10-20T01:42:32.470Z,100162.94
2022-10-20T01:43:04.810Z,100152.94
2022-10-20T01:43:36.652Z,100146.59
2022-10-20T01:44:08.913Z,100148.28
2022-10-20T01:44:40.430Z,100140.00
2022-10-20T01:45:11.982Z,100134.50
2022-10-20T01:45:44.056Z,100138.00
2022-10-20T01:46:15.794Z,100131.84
2022-10-20T01:46:47.337Z,100131.69
2022-10-20T01:47:18.907Z,100136.75
2022-10-20T01:47:50.400Z,100128.72
2022-10-20T01:48:22.703Z,100132.25
2022-10-20T01:48:54.362Z,100128.72
2022-10-20T01:49:25.909Z,100134.38
2022-10-20T01:49:57.457Z,100122.84
2022-10-20T01:50:28.977Z,100127.19
2022-10-20T01:51:00.810Z,100121.84
2022-10-20T01:51:32.637Z,100114.84
2022-10-20T01:52:04.264Z,100118.63
2022-10-20T01:52:35.944Z,100114.13
2022-10-20T01:53:08.069Z,100114.44
2022-10-20T01:53:39.616Z,100115.13
2022-10-20T01:54:20.932Z,100115.13
2022-10-20T01:54:52.541Z,100114.72
2022-10-20T01:55:24.217Z,100114.44
2022-10-20T01:55:56.452Z,100110.75
2022-10-20T01:56:35.579Z,100113.13
2022-10-20T01:57:07.062Z,100111.16
2022-10-20T01:58:04.648Z,100113.81
2022-10-20T01:58:42.974Z,100114.13
2022-10-20T01:59:18.463Z,100107.50
2022-10-20T01:59:54.742Z,100105.81
2022-10-20T02:00:26.253Z,100113.81
2022-10-20T02:00:59.126Z,100108.34
2022-10-20T02:01:49.369Z,100099.63
2022-10-20T02:02:43.175Z,100102.31
2022-10-20T02:03:17.526Z,100097.78
2022-10-20T02:03:52.612Z,100096.81
2022-10-20T02:04:28.058Z,100097.41
2022-10-20T02:05:02.532Z,100099.09
2022-10-20T02:05:52.936Z,100106.81
2022-10-20T02:06:43.244Z,100112.84
2022-10-20T02:07:21.816Z,100105.66
2022-10-20T02:07:54.390Z,100108.34
2022-10-20T02:08:28.778Z,100107.50
2022-10-20T02:09:04.156Z,100102.16
2022-10-20T02:09:38.724Z,100107.78
2022-10-20T02:10:12.805Z,100099.78
2022-10-20T02:10:45.718Z,100096.81
2022-10-20T02:11:20.450Z,100094.81
2022-10-20T02:12:00.955Z,100094.13
2022-10-20T02:12:34.522Z,100097.78
2022-10-20T02:13:06.332Z,100093.16
2022-10-20T02:13:37.835Z,100091.47
2022-10-20T02:14:10.255Z,100089.91
2022-10-20T02:14:41.779Z,100089.09
2022-10-20T02:15:14.770Z,100089.78
2022-10-20T02:15:47.229Z,100091.47
2022-10-20T02:16:27.643Z,100093.16
2022-10-20T02:16:59.828Z,100078.25
2022-10-20T02:17:31.350Z,100084.44
2022-10-20T02:18:03.528Z,100090.63
2022-10-20T02:18:35.684Z,100082.47
2022-10-20T02:19:07.596Z,100079.81
2022-10-20T02:19:39.798Z,100078.25
2022-10-20T02:20:11.390Z,100081.06
2022-10-20T02:20:43.344Z,100074.91
2022-10-20T02:21:15.677Z,100077.41
2022-10-20T02:21:47.205Z,100080.09
2022-10-20T02:22:18.821Z,100077.84
2022-10-20T02:22:50.319Z,100083.06
2022-10-20T02:23:21.868Z,100083.06
2022-10-20T02:23:53.461Z,100076.03
2022-10-20T02:24:26.259Z,100072.38
2022-10-20T02:24:57.802Z,100080.38
2022-10-20T02:25:29.400Z,100070.25
2022-10-20T02:26:00.976Z,100072.06
2022-10-20T02:26:32.540Z,100076.56
2022-10-20T02:27:22.356Z,100071.22
2022-10-20T02:27:53.969Z,100079.94
2022-10-20T02:28:25.527Z,100074.59
2022-10-20T02:28:57.832Z,100071.06
2022-10-20T02:29:29.820Z,100079.69
2022-10-20T02:30:05.275Z,100074.06
2022-10-20T02:30:36.823Z,100073.75
2022-10-20T02:31:08.393Z,100070.25
2022-10-20T02:31:40.000Z,100067.03
2022-10-20T02:32:11.537Z,100071.69
2022-10-20T02:32:43.304Z,100074.91
2022-10-20T02:33:15.183Z,100073.88
2022-10-20T02:33:46.754Z,100072.06
2022-10-20T02:34:18.354Z,100068.72
2022-10-20T02:34:49.886Z,100067.56
2022-10-20T02:35:26.713Z,100068.41
2022-10-20T02:35:58.679Z,100070.09
2022-10-20T02:36:30.255Z,100067.03
2022-10-20T02:37:01.906Z,100062.50
2022-10-20T02:37:33.946Z,100056.34
2022-10-20T02:38:05.806Z,100060.53
2022-10-20T02:38:37.370Z,100063.06
2022-10-20T02:39:08.914Z,100057.72
2022-10-20T02:39:40.441Z,100056.03
2022-10-20T02:40:12.128Z,100053.38
2022-10-20T02:40:43.732Z,100043.97
2022-10-20T02:41:15.262Z,100049.16
2022-10-20T02:41:46.808Z,100056.03
2022-10-20T02:42:18.388Z,100058.56
2022-10-20T02:42:49.976Z,100055.03
2022-10-20T02:43:21.516Z,100046.34
2022-10-20T02:43:53.055Z,100051.53
2022-10-20T02:44:24.579Z,100041.69
2022-10-20T02:44:56.079Z,100047.03
2022-10-20T02:45:27.591Z,100049.69
2022-10-20T02:45:59.081Z,100048.72
2022-10-20T02:46:30.657Z,100040.69
2022-10-20T02:47:02.223Z,100049.53
2022-10-20T02:47:34.046Z,100041.69
2022-10-20T02:48:07.610Z,100047.03
2022-10-20T02:48:39.594Z,100044.19
2022-10-20T02:49:11.148Z,100038.84
2022-10-20T02:49:42.728Z,100044.19
2022-10-20T02:50:14.299Z,100039.72
2022-10-20T02:50:45.814Z,100044.19
2022-10-20T02:51:17.343Z,100039.16
2022-10-20T02:51:48.927Z,100035.66
2022-10-20T02:52:20.472Z,100042.97
2022-10-20T02:52:52.046Z,100044.66
2022-10-20T02:53:23.589Z,100042.00
2022-10-20T02:53:55.163Z,100035.66
2022-10-20T02:54:26.722Z,100044.66
2022-10-20T02:54:58.233Z,100043.66
2022-10-20T02:55:29.884Z,100044.66
2022-10-20T02:56:01.366Z,100041.13
2022-10-20T02:56:32.921Z,100034.97
2022-10-20T02:57:04.471Z,100042.84
2022-10-20T02:57:36.160Z,100037.34
2022-10-20T02:58:08.036Z,100032.69
2022-10-20T02:58:39.623Z,100034.38
2022-10-20T02:59:14.690Z,100036.19
2022-10-20T02:59:46.336Z,100031.13
2022-10-20T03:00:17.947Z,100035.50
2022-10-20T03:00:49.947Z,100034.66
2022-10-20T03:01:21.533Z,100035.50
2022-10-20T03:01:53.101Z,100034.66
2022-10-20T03:02:24.736Z,100033.66
2022-10-20T03:02:56.370Z,100030.16
2022-10-20T03:03:28.039Z,100028.31
2022-10-20T03:03:59.825Z,100034.66
2022-10-20T03:04:31.544Z,100025.09
2022-10-20T03:05:03.115Z,100034.38
2022-10-20T03:05:38.612Z,100030.69
2022-10-20T03:06:10.545Z,100041.69
2022-10-20T03:06:42.076Z,100032.28
2022-10-20T03:07:13.710Z,100032.00
2022-10-20T03:07:45.269Z,100031.31
2022-10-20T03:08:16.863Z,100033.97
2022-10-20T03:08:48.426Z,100035.25
2022-10-20T03:09:19.955Z,100032.97
2022-10-20T03:09:51.467Z,100035.66
2022-10-20T03:10:22.990Z,100033.66
2022-10-20T03:10:54.530Z,100033.81
2022-10-20T03:11:26.110Z,100039.16
2022-10-20T03:11:57.676Z,100031.31
2022-10-20T03:12:31.516Z,100031.13
2022-10-20T03:13:04.007Z,100032.84
2022-10-20T03:13:35.890Z,100036.34
2022-10-20T03:14:07.518Z,100041.00
2022-10-20T03:14:39.081Z,100037.19
2022-10-20T03:15:11.012Z,100036.03
2022-10-20T03:15:42.543Z,100032.38
2022-10-20T03:16:14.149Z,100034.38
2022-10-20T03:16:45.704Z,100031.00
2022-10-20T03:17:17.210Z,100034.38
2022-10-20T03:17:48.724Z,100028.16
2022-10-20T03:18:20.257Z,100029.03
2022-10-20T03:18:52.062Z,100026.50
2022-10-20T03:19:23.610Z,100028.03
2022-10-20T03:19:55.224Z,100026.38
2022-10-20T03:20:26.901Z,100028.16
2022-10-20T03:20:58.408Z,100025.66
2022-10-20T03:21:30.021Z,100027.34
2022-10-20T03:22:01.685Z,100026.38
2022-10-20T03:22:33.309Z,100018.50
2022-10-20T03:23:04.894Z,100022.00
2022-10-20T03:23:36.463Z,100023.97
2022-10-20T03:24:08.090Z,100021.16
2022-10-20T03:24:39.619Z,100027.34
2022-10-20T03:25:11.191Z,100016.34
2022-10-20T03:25:42.753Z,100019.19
2022-10-20T03:26:14.279Z,100016.34
2022-10-20T03:26:45.831Z,100016.34
2022-10-20T03:27:17.359Z,100005.66
2022-10-20T03:27:48.942Z,100011.31
2022-10-20T03:28:20.501Z,100012.00
2022-10-20T03:28:52.003Z,100016.34
2022-10-20T03:29:23.573Z,100007.66
2022-10-20T03:29:55.103Z,100007.66
2022-10-20T03:30:26.653Z,100012.13
2022-10-20T03:30:58.285Z,100013.00
2022-10-20T03:31:29.848Z,100005.13
2022-10-20T03:32:01.369Z,99999.63
2022-10-20T03:32:33.030Z,100005.97
2022-10-20T03:33:04.704Z,100009.31
2022-10-20T03:33:36.299Z,100011.16
2022-10-20T03:34:07.828Z,100006.50
2022-10-20T03:34:39.369Z,100012.84
2022-10-20T03:35:10.899Z,100010.03
2022-10-20T03:35:42.391Z,100010.19
2022-10-20T03:36:13.943Z,100005.66
2022-10-20T03:36:45.505Z,100010.88
2022-10-20T03:37:17.037Z,100005.97
2022-10-20T03:37:48.628Z,100003.97
2022-10-20T03:38:20.184Z,99999.63
2022-10-20T03:38:51.712Z,100003.44
2022-10-20T03:39:23.360Z,100007.66
2022-10-20T03:39:55.036Z,100001.59
2022-10-20T03:40:26.614Z,99994.44
2022-10-20T03:40:58.250Z,100001.31
2022-10-20T03:41:29.748Z,99992.91
2022-10-20T03:42:01.350Z,99991.06
2022-10-20T03:42:33.175Z,99992.91
2022-10-20T03:43:04.894Z,99996.41
2022-10-20T03:43:36.441Z,99996.25
2022-10-20T03:44:09.624Z,99988.94
2022-10-20T03:44:41.232Z,100003.44
2022-10-20T03:45:15.008Z,99988.25
2022-10-20T03:45:49.478Z,100000.09
2022-10-20T03:46:21.008Z,99991.06
2022-10-20T03:46:52.578Z,99994.59
2022-10-20T03:47:24.140Z,99999.78
2022-10-20T03:47:55.799Z,99998.09
2022-10-20T03:48:27.396Z,99999.06
2022-10-20T03:48:58.935Z,99993.59
2022-10-20T03:49:30.502Z,100002.59
2022-10-20T03:50:02.078Z,99987.41
2022-10-20T03:50:33.815Z,99992.22
2022-10-20T03:51:05.516Z,99993.72
2022-10-20T03:51:36.988Z,99985.72
2022-10-20T03:52:08.540Z,99993.91
2022-10-20T03:52:40.068Z,99989.94
2022-10-20T03:53:14.670Z,99983.03
2022-10-20T03:53:46.209Z,99990.09
2022-10-20T03:54:18.020Z,99984.88
2022-10-20T03:54:49.696Z,99987.41
2022-10-20T03:55:21.357Z,99994.31
2022-10-20T03:55:53.009Z,99983.59
2022-10-20T03:56:24.581Z,99993.28
2022-10-20T03:56:56.637Z,99986.28
2022-10-20T03:57:28.289Z,99991.91
2022-10-20T03:57:59.995Z,99975.59
2022-10-20T03:58:31.598Z,99982.91
2022-10-20T03:59:35.602Z,99981.22
2022-10-20T04:00:07.349Z,99978.25
2022-10-20T04:00:38.969Z,99979.25
2022-10-20T04:01:13.919Z,99979.41
2022-10-20T04:01:45.608Z,99976.72
2022-10-20T04:02:22.741Z,99972.22
2022-10-20T04:02:54.437Z,99969.53
2022-10-20T04:03:26.043Z,99976.28
2022-10-20T04:03:57.642Z,99975.28
2022-10-20T04:04:29.230Z,99976.56
2022-10-20T04:05:00.803Z,99976.44
2022-10-20T04:05:32.479Z,99968.56
2022-10-20T04:06:04.388Z,99972.22
2022-10-20T04:06:35.957Z,99959.84
2022-10-20T04:07:07.469Z,99968.72
2022-10-20T04:07:38.991Z,99968.03
2022-10-20T04:08:10.614Z,99959.72
2022-10-20T04:08:42.323Z,99966.88
2022-10-20T04:09:13.990Z,99956.19
2022-10-20T04:09:45.616Z,99954.50
2022-10-20T04:10:17.396Z,99958.84
2022-10-20T04:10:48.983Z,99953.22
2022-10-20T04:11:20.622Z,99949.72
2022-10-20T04:11:52.156Z,99944.06
2022-10-20T04:12:23.922Z,99944.22
2022-10-20T04:12:57.901Z,99952.91
2022-10-20T04:13:29.450Z,99944.88
2022-10-20T04:14:01.019Z,99948.72
2022-10-20T04:14:32.541Z,99939.84
2022-10-20T04:15:04.448Z,99949.84
2022-10-20T04:15:36.062Z,99947.88
2022-10-20T04:16:07.813Z,99945.19
2022-10-20T04:16:39.398Z,99943.53
2022-10-20T04:17:10.986Z,99947.88
2022-10-20T04:17:42.601Z,99943.53
2022-10-20T04:18:14.207Z,99942.81
2022-10-20T04:18:45.849Z,99940.72
2022-10-20T04:19:17.419Z,99938.19
2022-10-20T04:19:48.948Z,99939.03
2022-10-20T04:20:20.461Z,99934.81
2022-10-20T04:20:52.028Z,99931.44
2022-10-20T04:21:23.603Z,99938.19
2022-10-20T04:21:55.265Z,99927.78
2022-10-20T04:22:26.820Z,99929.59
2022-10-20T04:22:58.376Z,99934.81
2022-10-20T04:23:30.002Z,99931.28
2022-10-20T04:24:01.665Z,99937.81
2022-10-20T04:24:33.209Z,99941.84
2022-10-20T04:25:04.869Z,99939.31
2022-10-20T04:25:39.137Z,99934.81
2022-10-20T04:26:11.412Z,99932.28
2022-10-20T04:26:42.967Z,99939.31
2022-10-20T04:27:14.552Z,99932.13
2022-10-20T04:27:46.121Z,99934.81
2022-10-20T04:28:18.254Z,99931.16
2022-10-20T04:28:49.838Z,99931.16
2022-10-20T04:29:21.470Z,99935.66
2022-10-20T04:29:53.097Z,99931.00
2022-10-20T04:30:24.681Z,99927.78
2022-10-20T04:30:56.163Z,99929.22
2022-10-20T04:31:27.756Z,99925.28
2022-10-20T04:31:59.324Z,99926.94
2022-10-20T04:32:30.911Z,99929.47
2022-10-20T04:33:02.520Z,99929.31
2022-10-20T04:33:34.222Z,99927.50
2022-10-20T04:34:05.867Z,99930.63
2022-10-20T04:34:37.374Z,99935.44
2022-10-20T04:35:09.032Z,99923.72
2022-10-20T04:35:40.768Z,99927.25
2022-10-20T04:36:12.427Z,99932.47
2022-10-20T04:36:43.970Z,99928.25
2022-10-20T04:37:15.587Z,99925.72
2022-10-20T04:37:47.256Z,99922.44
2022-10-20T04:38:18.825Z,99922.75
2022-10-20T04:38:50.365Z,99921.78
2022-10-20T04:39:22.011Z,99919.78
2022-10-20T04:39:53.547Z,99919.63
2022-10-20T04:40:25.136Z,99913.75
2022-10-20T04:40:59.165Z,99917.41
2022-10-20T04:41:33.443Z,99912.06
2022-10-20T04:42:04.963Z,99923.59
2022-10-20T04:42:36.640Z,99918.78
2022-10-20T04:43:08.161Z,99915.41
2022-10-20T04:43:39.776Z,99915.28
2022-10-20T04:44:11.306Z,99915.56
2022-10-20T04:44:42.814Z,99917.41
2022-10-20T04:45:14.432Z,99908.41
2022-10-20T04:45:45.973Z,99915.72
2022-10-20T04:46:17.595Z,99914.88
2022-10-20T04:46:49.148Z,99914.06
2022-10-20T04:47:20.683Z,99922.75
2022-10-20T04:47:52.311Z,99909.94
2022-10-20T04:48:24.126Z,99912.59
2022-10-20T04:48:55.700Z,99920.47
2022-10-20T04:49:27.236Z,99919.63
2022-10-20T04:49:58.881Z,99919.63
2022-10-20T04:50:30.437Z,99914.44
2022-10-20T04:51:03.071Z,99919.63
2022-10-20T04:51:34.594Z,99918.78
2022-10-20T04:52:06.154Z,99913.56
2022-10-20T04:52:37.667Z,99923.59
2022-10-20T04:53:09.294Z,99921.59
2022-10-20T04:53:40.976Z,99917.09
2022-10-20T04:54:12.632Z,99924.25
2022-10-20T04:54:44.491Z,99915.72
2022-10-20T04:55:16.038Z,99917.84
2022-10-20T04:55:53.802Z,99914.72
2022-10-20T04:56:25.406Z,99914.59
2022-10-20T04:56:57.023Z,99909.41
2022-10-20T04:57:28.593Z,99908.41
2022-10-20T04:58:00.131Z,99901.06
2022-10-20T04:58:31.731Z,99902.06
2022-10-20T04:59:03.281Z,99903.75
2022-10-20T04:59:34.803Z,99908.94
2022-10-20T05:00:06.704Z,99902.06
2022-10-20T05:00:38.397Z,99900.41
2022-10-20T05:01:09.981Z,99898.72
2022-10-20T05:01:41.653Z,99895.34
2022-10-20T05:02:13.294Z,99890.69
2022-10-20T05:02:44.833Z,99887.50
2022-10-20T05:03:16.535Z,99887.34
2022-10-20T05:03:48.153Z,99883.13
2022-10-20T05:04:19.690Z,99883.66
2022-10-20T05:04:51.247Z,99881.69
2022-10-20T05:05:22.765Z,99878.84
2022-10-20T05:05:54.291Z,99875.19
2022-10-20T05:06:28.646Z,99869.03
2022-10-20T05:07:00.217Z,99874.50
2022-10-20T05:07:31.754Z,99860.63
2022-10-20T05:08:03.287Z,99867.63
2022-10-20T05:08:34.986Z,99859.91
2022-10-20T05:09:06.770Z,99858.94
2022-10-20T05:09:38.414Z,99856.41
2022-10-20T05:10:10.004Z,99859.75
2022-10-20T05:10:41.592Z,99857.09
2022-10-20T05:11:13.314Z,99854.41
2022-10-20T05:11:44.894Z,99856.94
2022-10-20T05:12:16.453Z,99864.28
2022-10-20T05:12:48.054Z,99865.09
2022-10-20T05:13:19.629Z,99860.31
2022-10-20T05:13:51.255Z,99860.31
2022-10-20T05:14:22.988Z,99860.63
2022-10-20T05:14:54.551Z,99860.31
2022-10-20T05:15:26.166Z,99861.31
2022-10-20T05:15:57.712Z,99848.25
2022-10-20T05:16:29.285Z,99853.34
2022-10-20T05:17:00.903Z,99859.22
2022-10-20T05:17:32.465Z,99856.41
2022-10-20T05:18:04.154Z,99863.59
2022-10-20T05:18:35.779Z,99862.44
2022-10-20T05:19:07.385Z,99861.31
2022-10-20T05:19:38.921Z,99850.47
2022-10-20T05:20:10.560Z,99853.97
2022-10-20T05:21:07.410Z,99848.63
2022-10-20T05:21:33.777Z,99841.91
2022-10-20T05:22:05.372Z,99844.44
2022-10-20T05:22:37.353Z,99838.38
2022-10-20T05:23:09.205Z,99849.38
2022-10-20T05:23:40.812Z,99843.72
2022-10-20T05:24:16.737Z,99846.25
2022-10-20T05:24:51.793Z,99845.28
2022-10-20T05:25:35.976Z,99849.94
2022-10-20T05:26:09.362Z,99838.38
2022-10-20T05:26:40.925Z,99841.78
2022-10-20T05:27:12.472Z,99849.38
2022-10-20T05:27:44.030Z,99845.56
2022-10-20T05:28:15.555Z,99840.91
2022-10-20T05:28:47.884Z,99841.63
2022-10-20T05:29:19.479Z,99837.94
2022-10-20T05:29:51.146Z,99827.69
2022-10-20T05:30:22.691Z,99833.19
2022-10-20T05:30:55.646Z,99825.91
2022-10-20T05:31:29.405Z,99827.47
2022-10-20T05:32:00.982Z,99825.47
2022-10-20T05:32:32.606Z,99827.69
2022-10-20T05:33:04.271Z,99829.25
2022-10-20T05:33:35.954Z,99827.41
2022-10-20T05:34:07.664Z,99825.41
2022-10-20T05:34:39.266Z,99830.75
2022-10-20T05:35:10.802Z,99822.06
2022-10-20T05:35:42.393Z,99821.38
2022-10-20T05:36:19.259Z,99826.56
2022-10-20T05:36:53.329Z,99825.41
2022-10-20T05:37:27.221Z,99826.41
2022-10-20T05:37:58.998Z,99828.56
2022-10-20T05:38:30.547Z,99820.13
2022-10-20T05:39:02.117Z,99822.66
2022-10-20T05:39:33.757Z,99824.19
2022-10-20T05:40:05.740Z,99820.13
2022-10-20T05:40:37.418Z,99814.34
2022-10-20T05:41:12.733Z,99819.53
2022-10-20T05:41:44.273Z,99817.47
2022-10-20T05:42:15.810Z,99814.66
2022-10-20T05:42:47.447Z,99807.50
2022-10-20T05:43:18.992Z,99808.03
2022-10-20T05:43:50.892Z,99809.72
2022-10-20T05:44:22.513Z,99812.22
2022-10-20T05:44:54.139Z,99804.91
2022-10-20T05:45:25.778Z,99809.38
2022-10-20T05:45:57.312Z,99811.22
2022-10-20T05:46:29.849Z,99808.03
2022-10-20T05:47:01.417Z,99809.56
2022-10-20T05:47:33.369Z,99804.22
2022-10-20T05:48:05.092Z,99814.91
2022-10-20T05:49:28.291Z,99815.72
2022-10-20T05:49:59.797Z,99813.22
2022-10-20T05:50:31.390Z,99816.72
2022-10-20T05:51:12.018Z,99818.72
2022-10-20T05:51:46.361Z,99815.88
2022-10-20T05:52:17.933Z,99815.88
2022-10-20T05:52:49.532Z,99810.38
2022-10-20T05:53:21.122Z,99805.19
2022-10-20T05:53:52.907Z,99811.38
2022-10-20T05:54:24.386Z,99820.94
2022-10-20T05:54:55.972Z,99813.50
2022-10-20T05:55:27.510Z,99811.66
2022-10-20T05:56:02.918Z,99813.81
2022-10-20T05:56:34.470Z,99816.19
2022-10-20T05:57:06.019Z,99812.22
2022-10-20T05:57:37.571Z,99815.34
2022-10-20T05:58:09.081Z,99811.44
2022-10-20T05:58:40.790Z,99810.00
2022-10-20T05:59:12.415Z,99811.66
2022-10-20T05:59:43.980Z,99816.19
2022-10-20T06:00:15.972Z,99818.03
2022-10-20T06:00:47.647Z,99815.06
2022-10-20T06:01:20.145Z,99819.16
2022-10-20T06:01:51.802Z,99821.53
2022-10-20T06:02:23.419Z,99818.56
2022-10-20T06:02:54.928Z,99819.22
2022-10-20T06:03:28.290Z,99822.72
2022-10-20T06:04:00.044Z,99819.09
2022-10-20T06:04:31.695Z,99819.91
2022-10-20T06:05:03.415Z,99820.06
2022-10-20T06:05:34.918Z,99813.75
2022-10-20T06:06:06.504Z,99810.91
2022-10-20T06:06:38.077Z,99821.75
2022-10-20T06:07:09.594Z,99822.59
2022-10-20T06:07:41.247Z,99820.94
2022-10-20T06:08:12.760Z,99816.88
2022-10-20T06:08:44.335Z,99822.59
2022-10-20T06:09:16.166Z,99815.59
2022-10-20T06:09:47.701Z,99818.41
2022-10-20T06:10:19.249Z,99823.59
2022-10-20T06:10:50.830Z,99820.06
2022-10-20T06:11:22.400Z,99818.94
2022-10-20T06:11:54.097Z,99816.19
2022-10-20T06:12:25.618Z,99817.56
2022-10-20T06:12:57.239Z,99818.56
2022-10-20T06:13:28.798Z,99814.91
2022-10-20T06:14:00.475Z,99819.53
2022-10-20T06:14:32.107Z,99806.63
2022-10-20T06:15:03.792Z,99805.50
2022-10-20T06:15:35.325Z,99809.72
2022-10-20T06:16:07.886Z,99813.06
2022-10-20T06:16:39.507Z,99810.25
2022-10-20T06:17:11.117Z,99809.56
2022-10-20T06:17:42.721Z,99810.53
2022-10-20T06:18:14.250Z,99807.56
2022-10-20T06:18:45.729Z,99801.34
2022-10-20T06:19:17.221Z,99799.56
2022-10-20T06:19:48.799Z,99799.56
2022-10-20T06:20:20.363Z,99802.69
2022-10-20T06:20:58.481Z,99809.56